sensor_id;sensor_type;location;lat;lon;timestamp;pressure;altitude;pressure_sealevel;temperature;humidity
19594;BME280;9944;48.240;16.478;2022-12-07T05:44:18;99597.41;;;4.29;75.41
19594;BME280;9944;48.240;16.478;2022-12-07T05:48:21;99612.19;;;4.28;75.43
19594;BME280;9944;48.240;16.478;2022-12-07T05:52:24;99604.28;;;4.24;75.27
19594;BME280;9944;48.240;16.478;2022-12-07T05:56:27;99604.25;;;4.22;75.19
19594;BME280;9944;48.240;16.478;2022-12-07T06:00:32;99606.00;;;4.23;75.33
19594;BME280;9944;48.240;16.478;2022-12-07T06:09:25;99612.16;;;4.25;75.58
19594;BME280;9944;48.240;16.478;2022-12-07T06:13:29;99606.97;;;4.28;75.62
19594;BME280;9944;48.240;16.478;2022-12-07T06:17:33;99608.75;;;4.29;75.41
19594;BME280;9944;48.240;16.478;2022-12-07T06:21:36;99613.13;;;4.30;75.58
19594;BME280;9944;48.240;16.478;2022-12-07T06:25:39;99608.75;;;4.29;75.35
19594;BME280;9944;48.240;16.478;2022-12-07T06:29:42;99608.78;;;4.31;75.44
19594;BME280;9944;48.240;16.478;2022-12-07T06:33:46;99607.97;;;4.35;75.44
19594;BME280;9944;48.240;16.478;2022-12-07T06:37:49;99602.81;;;4.38;75.43
19594;BME280;9944;48.240;16.478;2022-12-07T06:41:52;99612.41;;;4.39;75.25
19594;BME280;9944;48.240;16.478;2022-12-07T06:45:55;99606.31;;;4.40;75.32
19594;BME280;9944;48.240;16.478;2022-12-07T06:50:00;99610.69;;;4.39;75.14
19594;BME280;9944;48.240;16.478;2022-12-07T06:54:04;99621.13;;;4.39;75.05
19594;BME280;9944;48.240;16.478;2022-12-07T06:58:07;99611.50;;;4.38;75.11
19594;BME280;9944;48.240;16.478;2022-12-07T07:02:10;99616.78;;;4.40;74.99
19594;BME280;9944;48.240;16.478;2022-12-07T07:06:15;99620.28;;;4.42;75.11
19594;BME280;9944;48.240;16.478;2022-12-07T07:10:19;99623.81;;;4.43;75.02
19594;BME280;9944;48.240;16.478;2022-12-07T07:14:22;99622.19;;;4.51;75.38
19594;BME280;9944;48.240;16.478;2022-12-07T07:18:25;99622.25;;;4.54;74.86
19594;BME280;9944;48.240;16.478;2022-12-07T07:22:30;99624.06;;;4.56;74.90
19594;BME280;9944;48.240;16.478;2022-12-07T07:26:33;99627.56;;;4.58;74.76
19594;BME280;9944;48.240;16.478;2022-12-07T07:30:36;99631.00;;;4.56;74.67
19594;BME280;9944;48.240;16.478;2022-12-07T07:34:39;99630.19;;;4.58;74.58
19594;BME280;9944;48.240;16.478;2022-12-07T07:38:44;99632.78;;;4.58;74.41
19594;BME280;9944;48.240;16.478;2022-12-07T07:42:48;99632.78;;;4.58;74.65
19594;BME280;9944;48.240;16.478;2022-12-07T07:46:51;99637.19;;;4.61;74.71
19594;BME280;9944;48.240;16.478;2022-12-07T07:50:55;99634.50;;;4.56;74.32
19594;BME280;9944;48.240;16.478;2022-12-07T07:54:59;99636.19;;;4.53;74.25
19594;BME280;9944;48.240;16.478;2022-12-07T07:59:02;99633.56;;;4.54;74.37
19594;BME280;9944;48.240;16.478;2022-12-07T08:03:05;99630.16;;;4.57;73.95
19594;BME280;9944;48.240;16.478;2022-12-07T08:07:08;99631.03;;;4.57;73.95
19594;BME280;9944;48.240;16.478;2022-12-07T08:11:13;99634.53;;;4.59;73.87
19594;BME280;9944;48.240;16.478;2022-12-07T08:15:16;99638.91;;;4.59;73.87
19594;BME280;9944;48.240;16.478;2022-12-07T08:19:19;99635.31;;;4.54;73.36
19594;BME280;9944;48.240;16.478;2022-12-07T08:23:22;99643.13;;;4.52;72.91
19594;BME280;9944;48.240;16.478;2022-12-07T08:27:39;99648.31;;;4.51;73.13
19594;BME280;9944;48.240;16.478;2022-12-07T08:31:42;99649.25;;;4.54;72.81
19594;BME280;9944;48.240;16.478;2022-12-07T08:35:45;99653.59;;;4.52;72.73
19594;BME280;9944;48.240;16.478;2022-12-07T08:39:48;99656.19;;;4.52;72.43
19594;BME280;9944;48.240;16.478;2022-12-07T08:43:52;99658.84;;;4.54;72.67
19594;BME280;9944;48.240;16.478;2022-12-07T08:47:58;99661.53;;;4.57;72.55
19594;BME280;9944;48.240;16.478;2022-12-07T08:52:05;99666.81;;;4.60;72.11
19594;BME280;9944;48.240;16.478;2022-12-07T08:56:09;99668.56;;;4.61;71.90
19594;BME280;9944;48.240;16.478;2022-12-07T09:00:14;99676.47;;;4.64;72.00
19594;BME280;9944;48.240;16.478;2022-12-07T09:04:18;99672.16;;;4.68;71.82
19594;BME280;9944;48.240;16.478;2022-12-07T09:08:23;99660.94;;;4.72;71.48
19594;BME280;9944;48.240;16.478;2022-12-07T09:12:29;99668.75;;;4.70;70.33
19594;BME280;9944;48.240;16.478;2022-12-07T09:16:33;99665.19;;;4.68;70.26
19594;BME280;9944;48.240;16.478;2022-12-07T09:20:36;99670.34;;;4.62;69.10
19594;BME280;9944;48.240;16.478;2022-12-07T09:24:40;99671.16;;;4.61;69.64
19594;BME280;9944;48.240;16.478;2022-12-07T09:28:42;99661.59;;;4.60;69.73
19594;BME280;9944;48.240;16.478;2022-12-07T09:32:47;99656.44;;;4.66;69.66
19594;BME280;9944;48.240;16.478;2022-12-07T09:36:50;99653.84;;;4.66;69.03
19594;BME280;9944;48.240;16.478;2022-12-07T09:40:54;99646.91;;;4.70;69.37
19594;BME280;9944;48.240;16.478;2022-12-07T09:44:58;99642.75;;;4.79;68.82
19594;BME280;9944;48.240;16.478;2022-12-07T09:49:03;99646.19;;;4.78;68.16
19594;BME280;9944;48.240;16.478;2022-12-07T09:53:09;99647.09;;;4.79;67.68
19594;BME280;9944;48.240;16.478;2022-12-07T09:57:15;99636.69;;;4.84;67.34
19594;BME280;9944;48.240;16.478;2022-12-07T10:01:20;99625.47;;;4.91;67.40
19594;BME280;9944;48.240;16.478;2022-12-07T10:05:28;99633.44;;;4.97;67.14
19594;BME280;9944;48.240;16.478;2022-12-07T10:09:32;99626.63;;;5.07;67.15
19594;BME280;9944;48.240;16.478;2022-12-07T10:13:39;99625.84;;;5.12;67.13
19594;BME280;9944;48.240;16.478;2022-12-07T10:17:48;99626.84;;;5.21;67.08
19594;BME280;9944;48.240;16.478;2022-12-07T10:22:12;99621.69;;;5.27;66.06
19594;BME280;9944;48.240;16.478;2022-12-07T10:26:36;99625.16;;;5.27;66.04
19594;BME280;9944;48.240;16.478;2022-12-07T10:30:53;99619.06;;;5.27;64.75
19594;BME280;9944;48.240;16.478;2022-12-07T10:35:21;99615.50;;;5.22;65.55
19594;BME280;9944;48.240;16.478;2022-12-07T10:39:26;99604.22;;;5.24;65.06
19594;BME280;9944;48.240;16.478;2022-12-07T10:43:29;99605.03;;;5.22;64.00
19594;BME280;9944;48.240;16.478;2022-12-07T10:47:36;99609.44;;;5.24;64.23
19594;BME280;9944;48.240;16.478;2022-12-07T10:51:44;99615.59;;;5.28;63.79
19594;BME280;9944;48.240;16.478;2022-12-07T10:56:12;99604.25;;;5.26;62.55
19594;BME280;9944;48.240;16.478;2022-12-07T11:00:22;99606.13;;;5.34;63.77
19594;BME280;9944;48.240;16.478;2022-12-07T11:04:33;99600.13;;;5.43;62.71
19594;BME280;9944;48.240;16.478;2022-12-07T11:08:45;99599.22;;;5.43;62.47
19594;BME280;9944;48.240;16.478;2022-12-07T11:17:36;99615.94;;;5.51;62.21
19594;BME280;9944;48.240;16.478;2022-12-07T11:21:49;99603.69;;;5.51;61.52
19594;BME280;9944;48.240;16.478;2022-12-07T11:26:02;99593.22;;;5.48;61.37
19594;BME280;9944;48.240;16.478;2022-12-07T11:30:18;99591.44;;;5.47;60.25
19594;BME280;9944;48.240;16.478;2022-12-07T11:34:31;99593.03;;;5.38;60.42
19594;BME280;9944;48.240;16.478;2022-12-07T11:38:43;99592.94;;;5.30;60.36
19594;BME280;9944;48.240;16.478;2022-12-07T11:42:52;99592.84;;;5.24;60.71
19594;BME280;9944;48.240;16.478;2022-12-07T11:47:04;99592.81;;;5.21;60.99
19594;BME280;9944;48.240;16.478;2022-12-07T11:51:11;99587.44;;;5.11;60.59
19594;BME280;9944;48.240;16.478;2022-12-07T11:55:19;99589.97;;;5.05;61.23
19594;BME280;9944;48.240;16.478;2022-12-07T11:59:29;99590.88;;;5.07;61.35
19594;BME280;9944;48.240;16.478;2022-12-07T12:03:38;99591.66;;;5.00;61.17
19594;BME280;9944;48.240;16.478;2022-12-07T12:07:45;99589.94;;;5.04;61.28
19594;BME280;9944;48.240;16.478;2022-12-07T12:12:24;99578.63;;;5.06;61.18
19594;BME280;9944;48.240;16.478;2022-12-07T12:17:17;99582.19;;;5.08;61.67
19594;BME280;9944;48.240;16.478;2022-12-07T12:21:27;99572.72;;;5.18;61.29
19594;BME280;9944;48.240;16.478;2022-12-07T12:25:38;99577.13;;;5.21;60.81
19594;BME280;9944;48.240;16.478;2022-12-07T12:29:43;99564.88;;;5.20;61.21
19594;BME280;9944;48.240;16.478;2022-12-07T12:33:48;99569.31;;;5.25;60.91
19594;BME280;9944;48.240;16.478;2022-12-07T12:37:53;99565.06;;;5.32;59.83
19594;BME280;9944;48.240;16.478;2022-12-07T12:42:03;99568.56;;;5.31;60.29
19594;BME280;9944;48.240;16.478;2022-12-07T12:46:37;99564.22;;;5.33;59.91
19594;BME280;9944;48.240;16.478;2022-12-07T12:50:40;99566.81;;;5.33;59.73
19594;BME280;9944;48.240;16.478;2022-12-07T12:54:58;99559.00;;;5.34;59.30
19594;BME280;9944;48.240;16.478;2022-12-07T12:59:22;99552.00;;;5.35;58.99
19594;BME280;9944;48.240;16.478;2022-12-07T13:03:28;99545.94;;;5.36;59.66
19594;BME280;9944;48.240;16.478;2022-12-07T13:07:56;99556.47;;;5.42;59.62
19594;BME280;9944;48.240;16.478;2022-12-07T13:12:03;99558.19;;;5.40;59.35
19594;BME280;9944;48.240;16.478;2022-12-07T13:16:38;99560.78;;;5.39;59.42
19594;BME280;9944;48.240;16.478;2022-12-07T13:20:52;99555.47;;;5.34;59.68
19594;BME280;9944;48.240;16.478;2022-12-07T13:24:56;99560.69;;;5.32;60.12
19594;BME280;9944;48.240;16.478;2022-12-07T13:29:07;99556.25;;;5.27;59.96
19594;BME280;9944;48.240;16.478;2022-12-07T13:33:14;99562.38;;;5.27;60.63
19594;BME280;9944;48.240;16.478;2022-12-07T13:37:24;99553.59;;;5.22;60.77
19594;BME280;9944;48.240;16.478;2022-12-07T13:41:29;99561.41;;;5.19;60.45
19594;BME280;9944;48.240;16.478;2022-12-07T13:45:33;99560.47;;;5.15;60.52
19594;BME280;9944;48.240;16.478;2022-12-07T13:49:55;99569.13;;;5.11;60.49
19594;BME280;9944;48.240;16.478;2022-12-07T13:54:06;99563.00;;;5.09;60.70
19594;BME280;9944;48.240;16.478;2022-12-07T13:58:12;99566.44;;;5.05;60.50
19594;BME280;9944;48.240;16.478;2022-12-07T14:02:21;99569.84;;;5.01;60.61
19594;BME280;9944;48.240;16.478;2022-12-07T14:06:25;99575.91;;;4.98;60.74
19594;BME280;9944;48.240;16.478;2022-12-07T14:10:32;99581.97;;;4.96;60.75
19594;BME280;9944;48.240;16.478;2022-12-07T14:14:36;99573.16;;;4.91;60.91
19594;BME280;9944;48.240;16.478;2022-12-07T14:18:40;99574.03;;;4.90;60.78
19594;BME280;9944;48.240;16.478;2022-12-07T14:22:54;99576.59;;;4.87;60.76
19594;BME280;9944;48.240;16.478;2022-12-07T14:26:59;99574.75;;;4.79;60.59
19594;BME280;9944;48.240;16.478;2022-12-07T14:31:03;99572.91;;;4.72;60.31
19594;BME280;9944;48.240;16.478;2022-12-07T14:35:10;99581.50;;;4.65;60.52
19594;BME280;9944;48.240;16.478;2022-12-07T14:39:13;99577.13;;;4.64;60.94
19594;BME280;9944;48.240;16.478;2022-12-07T14:43:18;99576.28;;;4.65;61.28
19594;BME280;9944;48.240;16.478;2022-12-07T14:47:22;99578.84;;;4.64;61.12
19594;BME280;9944;48.240;16.478;2022-12-07T14:51:46;99577.94;;;4.60;61.21
19594;BME280;9944;48.240;16.478;2022-12-07T14:56:09;99586.59;;;4.57;61.43
19594;BME280;9944;48.240;16.478;2022-12-07T15:00:16;99587.44;;;4.55;61.57
19594;BME280;9944;48.240;16.478;2022-12-07T15:04:19;99590.84;;;4.52;61.41
19594;BME280;9944;48.240;16.478;2022-12-07T15:08:22;99586.53;;;4.53;62.04
19594;BME280;9944;48.240;16.478;2022-12-07T15:12:25;99589.13;;;4.53;61.67
19594;BME280;9944;48.240;16.478;2022-12-07T15:16:30;99590.81;;;4.49;61.64
19594;BME280;9944;48.240;16.478;2022-12-07T15:20:53;99589.91;;;4.49;61.71
19594;BME280;9944;48.240;16.478;2022-12-07T15:24:55;99593.41;;;4.48;61.74
19594;BME280;9944;48.240;16.478;2022-12-07T15:28:58;99596.84;;;4.45;61.81
19594;BME280;9944;48.240;16.478;2022-12-07T15:33:03;99591.63;;;4.47;62.43
19594;BME280;9944;48.240;16.478;2022-12-07T15:37:07;99591.66;;;4.48;61.97
19594;BME280;9944;48.240;16.478;2022-12-07T15:41:12;99589.91;;;4.49;62.43
19594;BME280;9944;48.240;16.478;2022-12-07T15:45:15;99593.44;;;4.51;62.38
19594;BME280;9944;48.240;16.478;2022-12-07T15:49:19;99600.44;;;4.52;62.74
19594;BME280;9944;48.240;16.478;2022-12-07T15:53:22;99589.97;;;4.52;62.88
19594;BME280;9944;48.240;16.478;2022-12-07T15:57:25;99589.97;;;4.52;63.09
19594;BME280;9944;48.240;16.478;2022-12-07T16:01:28;99589.09;;;4.51;63.17
19594;BME280;9944;48.240;16.478;2022-12-07T16:05:33;99591.69;;;4.50;63.40
19594;BME280;9944;48.240;16.478;2022-12-07T16:09:36;99586.41;;;4.47;63.47
19594;BME280;9944;48.240;16.478;2022-12-07T16:13:39;99585.53;;;4.46;63.46
19594;BME280;9944;48.240;16.478;2022-12-07T16:17:42;99592.47;;;4.44;63.40
19594;BME280;9944;48.240;16.478;2022-12-07T16:21:46;99595.09;;;4.46;63.71
19594;BME280;9944;48.240;16.478;2022-12-07T16:25:49;99595.09;;;4.46;63.72
19594;BME280;9944;48.240;16.478;2022-12-07T16:29:52;99600.31;;;4.46;63.79
19594;BME280;9944;48.240;16.478;2022-12-07T16:33:57;99607.25;;;4.44;63.66
19594;BME280;9944;48.240;16.478;2022-12-07T16:38:02;99605.47;;;4.41;63.80
19594;BME280;9944;48.240;16.478;2022-12-07T16:42:05;99596.72;;;4.37;63.44
19594;BME280;9944;48.240;16.478;2022-12-07T16:46:08;99600.91;;;4.29;63.56
19594;BME280;9944;48.240;16.478;2022-12-07T16:50:11;99619.13;;;4.26;63.56
19594;BME280;9944;48.240;16.478;2022-12-07T16:54:16;99613.00;;;4.24;63.70
19594;BME280;9944;48.240;16.478;2022-12-07T16:58:19;99611.22;;;4.21;63.75
19594;BME280;9944;48.240;16.478;2022-12-07T17:02:21;99615.56;;;4.21;63.82
19594;BME280;9944;48.240;16.478;2022-12-07T17:06:26;99618.09;;;4.18;63.74
19594;BME280;9944;48.240;16.478;2022-12-07T17:10:33;99606.72;;;4.14;63.96
19594;BME280;9944;48.240;16.478;2022-12-07T17:14:36;99611.88;;;4.10;63.98
19594;BME280;9944;48.240;16.478;2022-12-07T17:18:57;99618.81;;;4.08;63.81
19594;BME280;9944;48.240;16.478;2022-12-07T17:23:00;99614.41;;;4.07;64.03
19594;BME280;9944;48.240;16.478;2022-12-07T17:27:05;99606.56;;;4.07;64.13
19594;BME280;9944;48.240;16.478;2022-12-07T17:31:09;99606.56;;;4.07;64.13
19594;BME280;9944;48.240;16.478;2022-12-07T17:35:13;99609.16;;;4.05;64.09
19594;BME280;9944;48.240;16.478;2022-12-07T17:39:17;99614.34;;;4.03;64.15
19594;BME280;9944;48.240;16.478;2022-12-07T17:43:21;99612.59;;;4.04;64.19
19594;BME280;9944;48.240;16.478;2022-12-07T17:47:25;99615.31;;;4.09;64.48
19594;BME280;9944;48.240;16.478;2022-12-07T17:51:28;99615.38;;;4.12;64.60
19594;BME280;9944;48.240;16.478;2022-12-07T17:55:52;99622.38;;;4.14;64.56
19594;BME280;9944;48.240;16.478;2022-12-07T18:00:17;99614.53;;;4.14;64.41
19594;BME280;9944;48.240;16.478;2022-12-07T18:04:20;99615.44;;;4.15;64.58
19594;BME280;9944;48.240;16.478;2022-12-07T18:08:23;99618.13;;;4.19;64.42
19594;BME280;9944;48.240;16.478;2022-12-07T18:12:26;99614.75;;;4.24;64.73
19594;BME280;9944;48.240;16.478;2022-12-07T18:16:32;99614.75;;;4.24;64.36
19594;BME280;9944;48.240;16.478;2022-12-07T18:20:36;99619.03;;;4.20;64.48
19594;BME280;9944;48.240;16.478;2022-12-07T18:24:39;99615.56;;;4.21;64.36
19594;BME280;9944;48.240;16.478;2022-12-07T18:28:42;99625.22;;;4.25;64.43
19594;BME280;9944;48.240;16.478;2022-12-07T18:32:47;99607.75;;;4.22;64.20
19594;BME280;9944;48.240;16.478;2022-12-07T18:36:50;99611.22;;;4.21;64.16
19594;BME280;9944;48.240;16.478;2022-12-07T18:40:53;99612.94;;;4.21;64.25
19594;BME280;9944;48.240;16.478;2022-12-07T18:44:56;99614.75;;;4.24;64.15
19594;BME280;9944;48.240;16.478;2022-12-07T18:49:02;99599.06;;;4.24;64.10
19594;BME280;9944;48.240;16.478;2022-12-07T18:53:05;99602.41;;;4.18;63.83
19594;BME280;9944;48.240;16.478;2022-12-07T18:57:10;99598.91;;;4.16;63.67
19594;BME280;9944;48.240;16.478;2022-12-07T19:01:13;99595.44;;;4.15;63.98
19594;BME280;9944;48.240;16.478;2022-12-07T19:05:18;99600.72;;;4.18;63.96
19594;BME280;9944;48.240;16.478;2022-12-07T19:09:21;99599.88;;;4.21;64.10
19594;BME280;9944;48.240;16.478;2022-12-07T19:13:24;99604.28;;;4.24;64.16
19594;BME280;9944;48.240;16.478;2022-12-07T19:17:27;99610.44;;;4.27;63.94
19594;BME280;9944;48.240;16.478;2022-12-07T19:21:31;99602.69;;;4.30;64.04
19594;BME280;9944;48.240;16.478;2022-12-07T19:25:34;99608.88;;;4.35;63.86
19594;BME280;9944;48.240;16.478;2022-12-07T19:29:37;99608.91;;;4.38;63.85
19594;BME280;9944;48.240;16.478;2022-12-07T19:33:40;99596.75;;;4.40;63.82
19594;BME280;9944;48.240;16.478;2022-12-07T19:37:44;99608.09;;;4.41;63.89
19594;BME280;9944;48.240;16.478;2022-12-07T19:41:47;99606.38;;;4.43;63.72
19594;BME280;9944;48.240;16.478;2022-12-07T19:45:51;99600.22;;;4.39;63.26
19594;BME280;9944;48.240;16.478;2022-12-07T19:49:54;99603.69;;;4.38;63.63
19594;BME280;9944;48.240;16.478;2022-12-07T19:53:59;99606.38;;;4.43;63.67
19594;BME280;9944;48.240;16.478;2022-12-07T19:58:02;99614.25;;;4.45;63.65
19594;BME280;9944;48.240;16.478;2022-12-07T20:02:07;99608.16;;;4.44;63.66
19594;BME280;9944;48.240;16.478;2022-12-07T20:06:13;99616.00;;;4.46;63.42
19594;BME280;9944;48.240;16.478;2022-12-07T20:10:17;99618.63;;;4.47;63.78
19594;BME280;9944;48.240;16.478;2022-12-07T20:14:27;99618.69;;;4.50;63.79
19594;BME280;9944;48.240;16.478;2022-12-07T20:18:29;99619.63;;;4.54;63.61
19594;BME280;9944;48.240;16.478;2022-12-07T20:22:33;99622.25;;;4.54;63.44
19594;BME280;9944;48.240;16.478;2022-12-07T20:26:39;99613.53;;;4.53;63.57
19594;BME280;9944;48.240;16.478;2022-12-07T20:30:46;99619.56;;;4.51;63.17
19594;BME280;9944;48.240;16.478;2022-12-07T20:34:49;99616.00;;;4.46;63.14
19594;BME280;9944;48.240;16.478;2022-12-07T20:38:52;99619.41;;;4.41;63.21
19594;BME280;9944;48.240;16.478;2022-12-07T20:42:57;99604.56;;;4.40;63.49
19594;BME280;9944;48.240;16.478;2022-12-07T20:47:00;99609.81;;;4.40;63.56
19594;BME280;9944;48.240;16.478;2022-12-07T20:51:04;99614.13;;;4.38;63.58
19594;BME280;9944;48.240;16.478;2022-12-07T20:55:07;99602.75;;;4.35;63.77
19594;BME280;9944;48.240;16.478;2022-12-07T20:59:14;99610.63;;;4.36;63.78
19594;BME280;9944;48.240;16.478;2022-12-07T21:03:17;99601.81;;;4.31;63.41
19594;BME280;9944;48.240;16.478;2022-12-07T21:07:20;99613.13;;;4.32;63.92
19594;BME280;9944;48.240;16.478;2022-12-07T21:11:24;99614.03;;;4.32;64.12
19594;BME280;9944;48.240;16.478;2022-12-07T21:15:29;99604.44;;;4.33;63.93
19594;BME280;9944;48.240;16.478;2022-12-07T21:19:32;99617.41;;;4.28;63.70
19594;BME280;9944;48.240;16.478;2022-12-07T21:23:36;99612.91;;;4.19;63.48
19594;BME280;9944;48.240;16.478;2022-12-07T21:27:39;99608.38;;;4.11;63.48
19594;BME280;9944;48.240;16.478;2022-12-07T21:31:43;99611.78;;;4.05;63.80
19594;BME280;9944;48.240;16.478;2022-12-07T21:35:47;99607.31;;;3.99;63.55
19594;BME280;9944;48.240;16.478;2022-12-07T21:39:50;99602.03;;;3.96;63.60
19594;BME280;9944;48.240;16.478;2022-12-07T21:43:54;99608.03;;;3.95;64.26
19594;BME280;9944;48.240;16.478;2022-12-07T21:47:59;99604.53;;;3.93;64.12
19594;BME280;9944;48.240;16.478;2022-12-07T21:52:02;99603.53;;;3.87;64.29
19594;BME280;9944;48.240;16.478;2022-12-07T21:56:12;99604.34;;;3.84;64.34
19594;BME280;9944;48.240;16.478;2022-12-07T22:00:16;99603.34;;;3.77;64.30
19594;BME280;9944;48.240;16.478;2022-12-07T22:04:22;99594.56;;;3.74;64.41
19594;BME280;9944;48.240;16.478;2022-12-07T22:08:26;99590.16;;;3.70;64.32
19594;BME280;9944;48.240;16.478;2022-12-07T22:12:29;99590.16;;;3.70;64.22
19594;BME280;9944;48.240;16.478;2022-12-07T22:16:32;99591.91;;;3.71;64.24
19594;BME280;9944;48.240;16.478;2022-12-07T22:20:37;99593.66;;;3.72;63.96
19594;BME280;9944;48.240;16.478;2022-12-07T22:24:40;99587.50;;;3.68;63.79
19594;BME280;9944;48.240;16.478;2022-12-07T22:28:44;99584.00;;;3.68;63.78
19594;BME280;9944;48.240;16.478;2022-12-07T22:32:48;99581.38;;;3.68;63.83
19594;BME280;9944;48.240;16.478;2022-12-07T22:36:52;99578.78;;;3.66;63.75
19594;BME280;9944;48.240;16.478;2022-12-07T22:40:55;99576.13;;;3.64;63.30
19594;BME280;9944;48.240;16.478;2022-12-07T22:44:59;99583.06;;;3.62;63.46
19594;BME280;9944;48.240;16.478;2022-12-07T22:49:02;99581.34;;;3.64;63.54
19594;BME280;9944;48.240;16.478;2022-12-07T22:53:07;99576.16;;;3.68;63.65
19594;BME280;9944;48.240;16.478;2022-12-07T22:57:10;99579.72;;;3.70;63.55
19594;BME280;9944;48.240;16.478;2022-12-07T23:01:16;99578.84;;;3.71;63.48
19594;BME280;9944;48.240;16.478;2022-12-07T23:05:19;99566.69;;;3.73;63.46
19594;BME280;9944;48.240;16.478;2022-12-07T23:09:24;99577.16;;;3.74;63.25
19594;BME280;9944;48.240;16.478;2022-12-07T23:13:27;99574.59;;;3.76;63.36
19594;BME280;9944;48.240;16.478;2022-12-07T23:17:37;99569.44;;;3.79;63.37
19594;BME280;9944;48.240;16.478;2022-12-07T23:21:40;99567.75;;;3.81;63.24
19594;BME280;9944;48.240;16.478;2022-12-07T23:25:44;99557.28;;;3.81;63.08
19594;BME280;9944;48.240;16.478;2022-12-07T23:29:48;99561.69;;;3.82;63.18
19594;BME280;9944;48.240;16.478;2022-12-07T23:33:51;99565.16;;;3.82;62.96
19594;BME280;9944;48.240;16.478;2022-12-07T23:37:54;99563.38;;;3.81;62.90
19594;BME280;9944;48.240;16.478;2022-12-07T23:41:58;99560.78;;;3.80;62.43
19594;BME280;9944;48.240;16.478;2022-12-07T23:46:02;99554.66;;;3.79;62.38
19594;BME280;9944;48.240;16.478;2022-12-07T23:50:06;99546.84;;;3.81;62.11
19594;BME280;9944;48.240;16.478;2022-12-07T23:54:09;99545.97;;;3.80;62.10
19594;BME280;9944;48.240;16.478;2022-12-07T23:58:14;99542.47;;;3.78;61.99
